createdAt,value
2017-08-03T00:00:38.501Z,30.63
2017-08-03T00:03:05.206Z,22.13
2017-08-03T00:05:31.877Z,26.17
2017-08-03T00:07:58.578Z,17.47
2017-08-03T00:10:25.241Z,20.90
2017-08-03T00:12:51.911Z,19.43
2017-08-03T00:15:18.584Z,19.30
2017-08-03T00:17:45.272Z,20.60
2017-08-03T00:20:11.953Z,19.17
2017-08-03T00:22:38.639Z,21.47
2017-08-03T00:25:05.350Z,22.63
2017-08-03T00:27:32.013Z,18.30
2017-08-03T00:29:58.693Z,21.40
2017-08-03T00:32:25.373Z,20.23
2017-08-03T00:34:52.045Z,26.93
2017-08-03T00:37:18.733Z,21.60
2017-08-03T00:39:45.409Z,19.37
2017-08-03T00:42:12.094Z,22.33
2017-08-03T00:44:38.768Z,21.10
2017-08-03T00:47:05.425Z,26.83
2017-08-03T00:49:32.109Z,29.23
2017-08-03T00:51:58.763Z,21.53
2017-08-03T00:54:25.461Z,28.80
2017-08-03T00:56:52.120Z,24.50
2017-08-03T00:59:18.778Z,22.13
2017-08-03T01:01:45.463Z,24.40
2017-08-03T01:04:12.153Z,23.37
2017-08-03T01:06:38.831Z,29.80
2017-08-03T01:09:05.546Z,24.10
2017-08-03T01:11:32.249Z,22.03
2017-08-03T01:13:58.946Z,25.47
2017-08-03T01:16:25.649Z,31.80
2017-08-03T01:18:52.310Z,24.70
2017-08-03T01:21:18.993Z,28.23
2017-08-03T01:23:45.678Z,29.73
2017-08-03T01:26:12.368Z,29.03
2017-08-03T01:28:39.042Z,30.23
2017-08-03T01:31:05.726Z,28.30
2017-08-03T01:33:32.388Z,41.20
2017-08-03T01:35:59.076Z,29.83
2017-08-03T01:38:25.773Z,30.17
2017-08-03T01:40:52.448Z,26.17
2017-08-03T01:43:19.152Z,33.50
2017-08-03T01:45:45.827Z,28.50
2017-08-03T01:48:12.490Z,31.80
2017-08-03T01:50:39.199Z,29.40
2017-08-03T01:53:05.881Z,36.70
2017-08-03T01:55:32.569Z,33.57
2017-08-03T01:57:59.255Z,34.73
2017-08-03T02:00:25.930Z,34.00
2017-08-03T02:02:52.621Z,35.50
2017-08-03T02:05:19.275Z,36.60
2017-08-03T02:07:45.940Z,31.50
2017-08-03T02:10:12.620Z,41.20
2017-08-03T02:12:39.293Z,39.50
2017-08-03T02:15:05.968Z,38.40
2017-08-03T02:17:32.629Z,42.00
2017-08-03T02:19:59.310Z,34.27
2017-08-03T02:22:25.990Z,38.63
2017-08-03T02:24:52.659Z,37.03
2017-08-03T02:27:19.386Z,41.30
2017-08-03T02:29:46.058Z,38.70
2017-08-03T02:32:12.761Z,34.97
2017-08-03T02:34:39.456Z,36.73
2017-08-03T02:37:06.137Z,33.97
2017-08-03T02:39:32.850Z,35.50
2017-08-03T02:41:59.528Z,34.90
2017-08-03T02:44:26.221Z,35.13
2017-08-03T02:46:52.913Z,36.30
2017-08-03T02:49:19.587Z,39.80
2017-08-03T02:51:46.270Z,39.23
2017-08-03T02:54:12.951Z,37.43
2017-08-03T02:56:39.645Z,32.27
2017-08-03T02:59:06.331Z,37.20
2017-08-03T03:01:33.014Z,44.83
2017-08-03T03:03:59.685Z,44.47
2017-08-03T03:06:26.364Z,34.30
2017-08-03T03:08:53.034Z,38.17
2017-08-03T03:11:19.708Z,39.43
2017-08-03T03:13:46.413Z,39.33
2017-08-03T03:16:13.073Z,49.03
2017-08-03T03:18:39.792Z,46.63
2017-08-03T03:21:06.473Z,53.73
2017-08-03T03:23:33.159Z,51.63
2017-08-03T03:25:59.848Z,54.30
2017-08-03T03:28:26.511Z,56.83
2017-08-03T03:30:53.197Z,55.83
2017-08-03T03:33:19.869Z,43.03
2017-08-03T03:35:46.519Z,45.57
2017-08-03T03:38:13.217Z,40.53
2017-08-03T03:40:39.908Z,48.60
2017-08-03T03:43:06.611Z,48.47
2017-08-03T03:45:33.289Z,42.60
2017-08-03T03:47:59.973Z,50.30
2017-08-03T03:50:26.669Z,47.10
2017-08-03T03:52:53.348Z,47.13
2017-08-03T03:55:20.014Z,50.30
2017-08-03T03:57:46.729Z,43.63
2017-08-03T04:00:13.386Z,36.50
2017-08-03T04:02:40.045Z,39.13
2017-08-03T04:05:06.756Z,49.33
2017-08-03T04:07:33.445Z,40.07
2017-08-03T04:10:00.137Z,43.27
2017-08-03T04:12:26.802Z,40.07
2017-08-03T04:14:53.501Z,36.23
2017-08-03T04:17:20.190Z,35.43
2017-08-03T04:19:46.902Z,33.03
2017-08-03T04:22:13.549Z,27.70
2017-08-03T04:24:40.205Z,26.57
2017-08-03T04:27:06.908Z,21.30
2017-08-03T04:29:33.576Z,27.80
2017-08-03T04:32:00.228Z,23.67
2017-08-03T04:34:26.971Z,22.97
2017-08-03T04:36:53.649Z,22.50
2017-08-03T04:39:20.317Z,26.67
2017-08-03T04:41:47.026Z,29.20
2017-08-03T04:44:13.715Z,26.77
2017-08-03T04:46:40.370Z,20.80
2017-08-03T04:49:07.052Z,26.13
2017-08-03T04:51:33.748Z,23.83
2017-08-03T04:54:00.421Z,24.33
2017-08-03T04:56:27.140Z,31.40
2017-08-03T04:58:53.813Z,32.63
2017-08-03T05:01:20.504Z,25.60
2017-08-03T05:03:47.167Z,28.33
2017-08-03T05:06:13.860Z,24.03
2017-08-03T05:08:40.553Z,25.27
2017-08-03T05:11:07.239Z,24.13
2017-08-03T05:13:33.913Z,22.03
2017-08-03T05:16:00.606Z,26.87
2017-08-03T05:18:27.275Z,25.03
2017-08-03T05:20:53.931Z,25.23
2017-08-03T05:23:20.620Z,25.77
2017-08-03T05:25:47.326Z,26.57
2017-08-03T05:28:13.985Z,32.33
2017-08-03T05:30:40.681Z,26.57
2017-08-03T05:33:07.369Z,25.53
2017-08-03T05:35:34.075Z,27.67
2017-08-03T05:38:00.772Z,27.83
2017-08-03T05:40:27.454Z,27.37
2017-08-03T05:42:54.117Z,28.93
2017-08-03T05:45:20.805Z,20.93
2017-08-03T05:47:47.508Z,28.07
2017-08-03T05:50:14.198Z,26.30
2017-08-03T05:52:40.886Z,27.90
2017-08-03T05:55:07.540Z,26.83
2017-08-03T05:57:34.244Z,28.37
2017-08-03T06:00:00.939Z,21.93
2017-08-03T06:02:27.618Z,19.63
2017-08-03T06:04:54.338Z,22.50
2017-08-03T06:07:20.993Z,17.70
2017-08-03T06:09:47.683Z,22.63
2017-08-03T06:12:14.400Z,16.97
2017-08-03T06:14:41.100Z,19.53
2017-08-03T06:17:07.813Z,22.60
2017-08-03T06:19:34.501Z,15.90
2017-08-03T06:22:01.194Z,23.03
2017-08-03T06:24:27.858Z,18.53
2017-08-03T06:26:54.545Z,17.10
2017-08-03T06:29:21.187Z,23.07
2017-08-03T06:31:47.836Z,19.03
2017-08-03T06:34:14.485Z,15.87
2017-08-03T06:36:41.105Z,19.93
2017-08-03T06:39:07.738Z,21.13
2017-08-03T06:41:34.376Z,13.67
2017-08-03T06:44:01.018Z,17.23
2017-08-03T06:46:27.651Z,16.87
2017-08-03T06:48:54.299Z,12.10
2017-08-03T06:51:20.972Z,13.60
2017-08-03T06:53:47.587Z,12.50
2017-08-03T06:56:14.255Z,14.60
2017-08-03T06:58:40.897Z,14.00
2017-08-03T07:01:07.506Z,14.43
2017-08-03T07:03:34.155Z,14.57
2017-08-03T07:06:00.799Z,14.80
2017-08-03T07:08:27.429Z,15.53
2017-08-03T07:10:54.060Z,12.77
2017-08-03T07:13:20.694Z,14.43
2017-08-03T07:15:47.323Z,17.97
2017-08-03T07:18:13.944Z,14.90
2017-08-03T07:20:40.606Z,17.87
2017-08-03T07:23:07.234Z,17.97
2017-08-03T07:25:33.887Z,19.30
2017-08-03T07:28:00.515Z,18.77
2017-08-03T07:30:27.177Z,15.43
2017-08-03T07:32:53.808Z,14.67
2017-08-03T07:35:20.443Z,16.00
2017-08-03T07:37:47.118Z,14.90
2017-08-03T07:40:13.759Z,20.67
2017-08-03T07:42:40.423Z,15.80
2017-08-03T07:45:07.075Z,14.03
2017-08-03T07:47:33.707Z,15.30
2017-08-03T07:50:00.375Z,14.00
2017-08-03T07:52:27.003Z,14.70
2017-08-03T07:54:53.639Z,13.57
2017-08-03T07:57:20.268Z,13.33
2017-08-03T07:59:46.887Z,13.70
2017-08-03T08:02:13.510Z,20.90
2017-08-03T08:04:40.154Z,13.63
2017-08-03T08:07:06.783Z,14.53
2017-08-03T08:09:33.419Z,20.90
2017-08-03T08:12:00.084Z,12.93
2017-08-03T08:14:26.738Z,15.73
2017-08-03T08:16:53.378Z,12.37
2017-08-03T08:19:20.025Z,21.03
2017-08-03T08:21:46.642Z,14.40
2017-08-03T08:24:13.303Z,7.00
2017-08-03T08:26:39.931Z,7.33
2017-08-03T08:29:06.560Z,7.27
2017-08-03T08:31:33.195Z,10.20
2017-08-03T08:33:59.832Z,10.20
2017-08-03T08:36:26.468Z,8.40
2017-08-03T08:38:53.868Z,5.70
2017-08-03T08:41:20.950Z,6.47
2017-08-03T08:43:47.579Z,7.37
2017-08-03T08:46:14.233Z,7.10
2017-08-03T08:48:40.852Z,9.50
2017-08-03T08:51:07.504Z,7.67
2017-08-03T08:53:34.124Z,7.37
2017-08-03T08:56:00.746Z,11.53
2017-08-03T08:58:27.397Z,10.70
2017-08-03T09:00:54.045Z,6.43
2017-08-03T09:03:20.706Z,13.40
2017-08-03T09:05:47.333Z,7.07
2017-08-03T09:08:13.947Z,8.63
2017-08-03T09:10:40.588Z,8.60
2017-08-03T09:13:07.223Z,4.40
2017-08-03T09:15:33.843Z,5.60
2017-08-03T09:18:00.484Z,9.47
2017-08-03T09:20:27.111Z,5.97
2017-08-03T09:22:53.776Z,4.73
2017-08-03T09:25:20.419Z,7.70
2017-08-03T09:27:47.047Z,4.40
2017-08-03T09:30:13.683Z,5.50
2017-08-03T09:32:40.305Z,3.87
2017-08-03T09:35:06.940Z,5.97
2017-08-03T09:37:33.607Z,3.13
2017-08-03T09:40:02.355Z,6.40
2017-08-03T09:42:29.280Z,7.83
2017-08-03T09:44:55.929Z,5.37
2017-08-03T09:47:22.570Z,6.67
2017-08-03T09:49:49.203Z,3.80
2017-08-03T09:52:16.443Z,5.07
2017-08-03T09:54:43.076Z,4.80
2017-08-03T09:57:11.788Z,4.03
2017-08-03T09:59:40.171Z,3.80
2017-08-03T10:02:09.452Z,4.30
2017-08-03T10:04:38.958Z,7.53
2017-08-03T10:07:06.396Z,5.97
2017-08-03T10:09:35.696Z,4.00
2017-08-03T10:12:02.319Z,6.57
2017-08-03T10:14:31.052Z,7.93
2017-08-03T10:16:59.856Z,4.70
2017-08-03T10:19:26.644Z,5.87
2017-08-03T10:21:55.418Z,5.00
2017-08-03T10:24:22.068Z,6.83
2017-08-03T10:26:48.710Z,4.83
2017-08-03T10:29:15.326Z,4.53
2017-08-03T10:31:41.961Z,9.80
2017-08-03T10:34:09.739Z,4.47
2017-08-03T10:36:36.356Z,5.00
2017-08-03T10:39:02.976Z,6.23
2017-08-03T10:41:31.595Z,5.77
2017-08-03T10:43:58.215Z,9.27
2017-08-03T10:46:24.839Z,8.10
2017-08-03T10:48:51.483Z,7.13
2017-08-03T10:51:18.119Z,6.53
2017-08-03T10:53:44.748Z,6.10
2017-08-03T10:56:11.382Z,6.30
2017-08-03T10:58:39.514Z,5.23
2017-08-03T11:01:06.149Z,5.00
2017-08-03T11:03:32.776Z,9.03
2017-08-03T11:06:02.058Z,6.20
2017-08-03T11:08:30.537Z,5.10
2017-08-03T11:10:57.422Z,4.57
2017-08-03T11:13:28.055Z,7.00
2017-08-03T11:15:54.677Z,6.17
2017-08-03T11:18:21.296Z,6.93
2017-08-03T11:20:47.934Z,7.20
2017-08-03T11:23:14.576Z,7.80
2017-08-03T11:25:42.496Z,4.00
2017-08-03T11:28:09.655Z,5.00
2017-08-03T11:30:37.301Z,4.90
2017-08-03T11:33:05.714Z,3.90
2017-08-03T11:35:34.476Z,2.60
2017-08-03T11:38:01.087Z,4.10
2017-08-03T11:40:31.062Z,4.50
2017-08-03T11:42:58.091Z,4.13
2017-08-03T11:45:32.022Z,4.10
2017-08-03T11:48:02.227Z,6.37
2017-08-03T11:50:29.723Z,2.20
2017-08-03T11:53:00.814Z,3.13
2017-08-03T11:55:27.946Z,4.50
2017-08-03T11:57:55.433Z,3.07
2017-08-03T12:00:22.066Z,2.77
2017-08-03T12:02:49.828Z,2.90
2017-08-03T12:05:17.196Z,3.43
2017-08-03T12:07:43.812Z,2.87
2017-08-03T12:10:11.431Z,2.63
2017-08-03T12:12:40.471Z,3.03
2017-08-03T12:15:07.086Z,2.30
2017-08-03T12:17:34.028Z,4.23
2017-08-03T12:20:00.636Z,3.10
2017-08-03T12:22:32.228Z,2.10
2017-08-03T12:24:58.857Z,2.60
2017-08-03T12:27:25.826Z,2.60
2017-08-03T12:29:52.484Z,3.40
2017-08-03T12:32:20.964Z,3.80
2017-08-03T12:34:47.605Z,1.97
2017-08-03T12:37:15.558Z,4.50
2017-08-03T12:39:45.239Z,6.37
2017-08-03T12:42:11.892Z,1.77
2017-08-03T12:44:38.536Z,2.33
2017-08-03T12:47:05.186Z,2.53
2017-08-03T12:49:33.443Z,3.07
2017-08-03T12:52:00.516Z,3.40
2017-08-03T12:54:27.319Z,6.37
2017-08-03T12:56:58.976Z,3.50
2017-08-03T12:59:25.624Z,2.07
2017-08-03T13:01:52.272Z,2.17
2017-08-03T13:04:18.935Z,3.20
2017-08-03T13:06:45.583Z,1.87
2017-08-03T13:09:12.210Z,2.60
2017-08-03T13:11:38.843Z,6.27
2017-08-03T13:14:05.454Z,2.27
2017-08-03T13:16:32.212Z,2.73
2017-08-03T13:21:22.616Z,3.03
2017-08-03T13:23:49.276Z,2.87
2017-08-03T13:26:15.892Z,3.67
2017-08-03T13:28:42.823Z,6.13
2017-08-03T13:31:09.775Z,3.53
2017-08-03T13:33:36.416Z,10.63
2017-08-03T13:36:03.048Z,2.50
2017-08-03T13:38:29.649Z,2.83
2017-08-03T13:40:56.297Z,3.50
2017-08-03T13:43:22.940Z,2.33
2017-08-03T13:45:49.655Z,5.80
2017-08-03T13:48:16.283Z,4.97
2017-08-03T13:50:42.964Z,2.23
2017-08-03T13:53:09.595Z,2.30
2017-08-03T13:55:36.463Z,3.30
2017-08-03T13:58:03.100Z,1.90
2017-08-03T14:00:31.333Z,2.30
2017-08-03T14:02:58.012Z,2.40
2017-08-03T14:05:24.636Z,1.80
2017-08-03T14:07:51.574Z,2.80
2017-08-03T14:10:21.657Z,3.20
2017-08-03T14:12:51.343Z,4.33
2017-08-03T14:15:19.728Z,14.00
2017-08-03T14:17:48.399Z,4.93
2017-08-03T14:20:15.477Z,2.07
2017-08-03T14:22:46.079Z,3.53
2017-08-03T14:25:15.910Z,4.50
2017-08-03T14:27:45.681Z,2.43
2017-08-03T14:30:15.197Z,2.50
2017-08-03T14:32:43.222Z,4.73
2017-08-03T14:35:12.169Z,4.70
2017-08-03T14:37:42.541Z,5.80
2017-08-03T14:40:10.616Z,3.63
2017-08-03T14:42:40.577Z,2.53
2017-08-03T14:45:09.364Z,3.70
2017-08-03T14:47:36.799Z,7.13
2017-08-03T14:50:06.615Z,5.20
2017-08-03T14:52:35.322Z,6.40
2017-08-03T14:55:04.054Z,2.90
2017-08-03T14:57:32.639Z,3.73
2017-08-03T15:00:02.043Z,2.40
2017-08-03T15:02:31.403Z,9.33
2017-08-03T15:05:02.793Z,4.87
2017-08-03T15:07:31.530Z,8.70
2017-08-03T15:10:00.434Z,8.07
2017-08-03T15:12:29.003Z,4.07
2017-08-03T15:14:57.812Z,6.70
2017-08-03T15:17:26.397Z,7.13
2017-08-03T15:19:54.728Z,5.23
2017-08-03T15:22:22.399Z,6.13
2017-08-03T15:24:51.780Z,3.07
2017-08-03T15:27:20.582Z,4.60
2017-08-03T15:29:49.259Z,6.90
2017-08-03T15:32:18.671Z,6.67
2017-08-03T15:34:51.737Z,8.00
2017-08-03T15:37:21.899Z,5.03
2017-08-03T15:39:51.301Z,4.03
2017-08-03T15:42:24.687Z,4.40
2017-08-03T15:44:54.681Z,7.50
2017-08-03T15:47:24.618Z,8.73
2017-08-03T15:49:52.832Z,5.63
2017-08-03T15:52:20.844Z,4.53
2017-08-03T15:54:49.939Z,3.70
2017-08-03T15:57:19.356Z,6.20
2017-08-03T15:59:47.223Z,8.20
2017-08-03T16:02:19.850Z,4.60
2017-08-03T16:04:47.964Z,6.37
2017-08-03T16:07:16.431Z,7.27
2017-08-03T16:09:43.889Z,4.67
2017-08-03T16:12:13.453Z,2.50
2017-08-03T16:14:43.337Z,7.70
2017-08-03T16:17:12.260Z,7.93
2017-08-03T16:19:42.225Z,4.80
2017-08-03T16:22:12.627Z,3.53
2017-08-03T16:24:44.260Z,2.90
2017-08-03T16:27:12.080Z,7.40
2017-08-03T16:29:39.741Z,12.63
2017-08-03T16:32:09.086Z,3.53
2017-08-03T16:34:40.880Z,7.20
2017-08-03T16:37:09.552Z,4.80
2017-08-03T16:39:36.892Z,8.47
2017-08-03T16:42:05.210Z,4.73
2017-08-03T16:44:34.965Z,6.53
2017-08-03T16:47:05.015Z,7.30
2017-08-03T16:49:34.684Z,8.20
2017-08-03T16:52:01.324Z,6.77
2017-08-03T16:54:32.524Z,4.80
2017-08-03T16:57:01.099Z,6.70
2017-08-03T16:59:32.628Z,6.60
2017-08-03T17:02:01.442Z,7.70
2017-08-03T17:04:31.344Z,5.90
2017-08-03T17:06:58.820Z,8.07
2017-08-03T17:09:27.364Z,8.60
2017-08-03T17:11:54.007Z,6.67
2017-08-03T17:14:20.626Z,9.20
2017-08-03T17:16:51.574Z,5.10
2017-08-03T17:19:18.191Z,7.90
2017-08-03T17:21:45.283Z,4.87
2017-08-03T17:24:12.474Z,5.67
2017-08-03T17:26:42.777Z,4.97
2017-08-03T17:29:09.472Z,9.83
2017-08-03T17:31:36.117Z,7.20
2017-08-03T17:34:02.758Z,9.30
2017-08-03T17:36:29.377Z,9.30
2017-08-03T17:38:56.011Z,4.07
2017-08-03T17:41:22.671Z,6.67
2017-08-03T17:43:49.637Z,7.87
2017-08-03T17:46:16.269Z,5.17
2017-08-03T17:48:42.890Z,5.47
2017-08-03T17:51:09.579Z,10.60
2017-08-03T17:53:36.192Z,8.40
2017-08-03T17:56:02.810Z,5.10
2017-08-03T17:58:29.464Z,6.57
2017-08-03T18:00:56.096Z,11.60
2017-08-03T18:03:22.727Z,14.73
2017-08-03T18:05:49.334Z,6.20
2017-08-03T18:08:15.996Z,7.20
2017-08-03T18:10:42.860Z,7.67
2017-08-03T18:13:09.534Z,8.33
2017-08-03T18:15:36.171Z,5.87
2017-08-03T18:18:02.779Z,8.63
2017-08-03T18:20:29.413Z,9.97
2017-08-03T18:22:56.048Z,11.70
2017-08-03T18:25:24.255Z,5.63
2017-08-03T18:27:50.892Z,7.17
2017-08-03T18:30:17.560Z,4.03
2017-08-03T18:32:44.166Z,5.73
2017-08-03T18:35:10.805Z,12.33
2017-08-03T18:37:37.484Z,13.10
2017-08-03T18:40:05.087Z,9.73
2017-08-03T18:42:31.703Z,6.47
2017-08-03T18:44:59.218Z,9.60
2017-08-03T18:47:28.049Z,5.80
2017-08-03T18:49:56.468Z,11.23
2017-08-03T18:52:25.535Z,8.63
2017-08-03T18:54:52.192Z,9.27
2017-08-03T18:57:18.840Z,19.60
2017-08-03T18:59:48.909Z,14.07
2017-08-03T19:02:18.833Z,9.10
2017-08-03T19:04:47.048Z,8.80
2017-08-03T19:07:19.317Z,6.00
2017-08-03T19:09:45.938Z,6.07
2017-08-03T19:12:14.701Z,7.50
2017-08-03T19:14:41.342Z,5.70
2017-08-03T19:17:11.521Z,7.20
2017-08-03T19:19:38.162Z,7.87
2017-08-03T19:22:04.809Z,10.33
2017-08-03T19:24:31.475Z,7.77
2017-08-03T19:26:59.272Z,7.60
2017-08-03T19:29:25.911Z,4.83
2017-08-03T19:31:55.406Z,10.60
2017-08-03T19:34:23.135Z,8.60
2017-08-03T19:36:51.654Z,9.07
2017-08-03T19:39:20.228Z,10.40
2017-08-03T19:41:49.026Z,3.87
2017-08-03T19:44:15.651Z,7.33
2017-08-03T19:46:42.273Z,6.23
2017-08-03T19:49:08.914Z,6.90
2017-08-03T19:51:35.537Z,4.17
2017-08-03T19:54:02.171Z,6.07
2017-08-03T19:56:28.893Z,9.10
2017-08-03T19:58:55.526Z,4.57
2017-08-03T20:01:22.148Z,9.83
2017-08-03T20:03:48.814Z,5.97
2017-08-03T20:06:15.448Z,8.43
2017-08-03T20:08:51.426Z,4.73
2017-08-03T20:11:19.507Z,6.83
2017-08-03T20:13:48.785Z,10.73
2017-08-03T20:16:19.339Z,4.13
2017-08-03T20:18:51.186Z,10.70
2017-08-03T20:21:19.864Z,5.60
2017-08-03T20:23:48.420Z,5.20
2017-08-03T20:26:16.643Z,10.63
2017-08-03T20:28:49.794Z,7.70
2017-08-03T20:31:16.975Z,4.23
2017-08-03T20:33:46.054Z,13.17
2017-08-03T20:36:14.833Z,9.87
2017-08-03T20:38:43.463Z,8.47
2017-08-03T20:41:13.140Z,10.57
2017-08-03T20:43:43.359Z,10.20
2017-08-03T20:46:11.736Z,7.83
2017-08-03T20:48:41.972Z,8.70
2017-08-03T20:51:09.774Z,8.63
2017-08-03T20:53:39.381Z,8.20
2017-08-03T20:56:08.997Z,6.40
2017-08-03T20:58:37.019Z,11.40
2017-08-03T21:01:05.979Z,6.30
2017-08-03T21:03:35.535Z,3.10
2017-08-03T21:06:03.463Z,11.20
2017-08-03T21:08:32.304Z,6.23
2017-08-03T21:11:02.274Z,5.70
2017-08-03T21:13:30.543Z,5.93
2017-08-03T21:16:00.220Z,7.80
2017-08-03T21:18:28.973Z,2.67
2017-08-03T21:20:57.718Z,7.30
2017-08-03T21:23:24.413Z,11.13
2017-08-03T21:25:54.447Z,9.40
2017-08-03T21:28:23.720Z,11.30
2017-08-03T21:30:51.725Z,5.43
2017-08-03T21:33:22.031Z,9.70
2017-08-03T21:35:51.104Z,6.23
2017-08-03T21:38:21.022Z,11.13
2017-08-03T21:40:48.167Z,11.47
2017-08-03T21:43:17.156Z,5.73
2017-08-03T21:45:45.419Z,12.03
2017-08-03T21:48:15.259Z,6.00
2017-08-03T21:50:46.220Z,9.13
2017-08-03T21:53:14.185Z,9.30
2017-08-03T21:55:42.458Z,13.27
2017-08-03T21:58:11.413Z,14.57
2017-08-03T22:00:44.009Z,8.77
2017-08-03T22:03:14.581Z,6.83
2017-08-03T22:05:43.819Z,4.47
2017-08-03T22:08:14.503Z,10.37
2017-08-03T22:10:42.784Z,9.47
2017-08-03T22:13:11.298Z,9.13
2017-08-03T22:15:40.707Z,9.63
2017-08-03T22:18:09.382Z,6.20
2017-08-03T22:20:40.168Z,6.20
2017-08-03T22:23:08.493Z,6.70
2017-08-03T22:25:38.356Z,12.40
2017-08-03T22:28:08.972Z,8.63
2017-08-03T22:30:38.279Z,11.27
2017-08-03T22:33:10.472Z,9.07
2017-08-03T22:35:39.819Z,5.77
2017-08-03T22:38:10.544Z,11.57
2017-08-03T22:40:39.255Z,3.37
2017-08-03T22:43:08.767Z,14.50
2017-08-03T22:45:37.508Z,8.97
2017-08-03T22:48:08.718Z,4.27
2017-08-03T22:50:36.036Z,11.10
2017-08-03T22:53:04.786Z,6.40
2017-08-03T22:55:33.886Z,8.77
2017-08-03T22:58:03.606Z,9.17
2017-08-03T23:00:32.178Z,7.30
2017-08-03T23:03:00.943Z,5.13
2017-08-03T23:05:29.744Z,5.37
2017-08-03T23:07:59.302Z,5.80
2017-08-03T23:10:29.539Z,7.97
2017-08-03T23:12:59.369Z,5.67
2017-08-03T23:15:28.799Z,8.17
2017-08-03T23:17:58.134Z,11.10
2017-08-03T23:20:26.428Z,6.30
2017-08-03T23:22:55.427Z,4.90
2017-08-03T23:25:24.896Z,4.87
2017-08-03T23:27:54.346Z,3.70
2017-08-03T23:30:24.228Z,12.70
2017-08-03T23:32:54.888Z,6.50
2017-08-03T23:35:24.396Z,9.33
2017-08-03T23:37:53.122Z,5.27
2017-08-03T23:40:22.072Z,9.07
2017-08-03T23:42:51.378Z,6.70
2017-08-03T23:45:20.247Z,7.77
2017-08-03T23:47:48.905Z,14.03
2017-08-03T23:50:17.522Z,13.20
2017-08-03T23:52:46.391Z,8.40
2017-08-03T23:55:16.305Z,7.60
2017-08-03T23:57:46.078Z,4.80
